createdAt,value
2022-08-20T00:03:04.671Z,101232.88
2022-08-20T00:08:08.183Z,101168.09
2022-08-20T00:13:18.971Z,101202.88
2022-08-20T00:18:22.059Z,101219.38
2022-08-20T00:23:25.981Z,101201.16
2022-08-20T00:28:30.069Z,101220.75
2022-08-20T00:33:33.185Z,101230.34
2022-08-20T00:38:37.397Z,101149.84
2022-08-20T00:43:44.991Z,101212.44
2022-08-20T00:48:50.728Z,101212.09
2022-08-20T00:53:53.668Z,101217.34
2022-08-20T00:58:58.165Z,101217.34
2022-08-20T01:04:01.118Z,101162.44
2022-08-20T01:09:05.891Z,101179.59
2022-08-20T01:14:32.049Z,101120.94
2022-08-20T01:19:39.203Z,101210.88
2022-08-20T01:24:43.630Z,101216.28
2022-08-20T01:29:48.256Z,101231.22
2022-08-20T01:34:50.974Z,101229.59
2022-08-20T01:39:54.645Z,101195.16
2022-08-20T01:44:58.808Z,101206.34
2022-08-20T01:50:13.380Z,101221.19
2022-08-20T01:55:16.268Z,101235.53
2022-08-20T02:00:22.306Z,101240.06
2022-08-20T02:05:30.498Z,101207.75
2022-08-20T02:10:36.194Z,101237.22
2022-08-20T02:15:42.936Z,101235.53
2022-08-20T02:20:46.940Z,101242.41
2022-08-20T02:25:49.794Z,101201.19
2022-08-20T02:30:56.278Z,101239.59
2022-08-20T02:35:59.000Z,101220.66
2022-08-20T02:41:02.646Z,101234.69
2022-08-20T02:46:08.662Z,101234.72
2022-08-20T02:51:11.769Z,101142.41
2022-08-20T02:56:15.121Z,101232.22
2022-08-20T03:01:19.982Z,101218.41
2022-08-20T03:06:23.703Z,101235.06
2022-08-20T03:11:26.814Z,101142.63
2022-08-20T03:16:30.974Z,101227.41
2022-08-20T03:21:33.680Z,101181.44
2022-08-20T03:26:36.849Z,101161.75
2022-08-20T03:31:41.213Z,101208.94
2022-08-20T03:36:43.999Z,101214.41
2022-08-20T03:41:46.680Z,101187.75
2022-08-20T03:46:53.151Z,101227.59
2022-08-20T03:51:57.515Z,101230.81
2022-08-20T03:57:02.885Z,101232.03
2022-08-20T04:02:16.390Z,101213.69
2022-08-20T04:07:25.423Z,101185.41
2022-08-20T04:12:28.188Z,101226.56
2022-08-20T04:17:33.443Z,101230.25
2022-08-20T04:22:36.829Z,101234.34
2022-08-20T04:27:40.094Z,101244.16
2022-08-20T04:32:44.328Z,101212.66
2022-08-20T04:37:49.156Z,101224.09
2022-08-20T04:42:51.913Z,101227.00
2022-08-20T04:47:58.442Z,101225.44
2022-08-20T04:53:01.083Z,101278.56
2022-08-20T04:58:05.884Z,101282.47
2022-08-20T05:03:09.913Z,101206.19
2022-08-20T05:08:19.775Z,101256.28
2022-08-20T05:13:27.119Z,101278.38
2022-08-20T05:18:33.440Z,101292.91
2022-08-20T05:23:40.534Z,101266.88
2022-08-20T05:28:52.753Z,101290.91
2022-08-20T05:34:03.090Z,101287.91
2022-08-20T05:39:05.699Z,101203.72
2022-08-20T05:44:13.119Z,101258.84
2022-08-20T05:49:21.163Z,101307.53
2022-08-20T05:54:23.884Z,101305.72
2022-08-20T05:59:27.532Z,101290.78
2022-08-20T06:04:32.056Z,101311.81
2022-08-20T06:09:35.024Z,101310.16
2022-08-20T06:14:37.803Z,101313.75
2022-08-20T06:19:44.199Z,101293.34
2022-08-20T06:24:47.894Z,101221.72
2022-08-20T06:29:51.711Z,101306.72
2022-08-20T06:34:55.764Z,101321.97
2022-08-20T06:40:02.633Z,101267.53
2022-08-20T06:45:05.946Z,101243.31
2022-08-20T06:50:13.375Z,101313.00
2022-08-20T06:55:18.134Z,101315.81
2022-08-20T07:00:24.070Z,101262.78
2022-08-20T07:05:28.796Z,101332.94
2022-08-20T07:10:32.062Z,101294.28
2022-08-20T07:15:34.762Z,101332.72
2022-08-20T07:20:42.912Z,101270.72
2022-08-20T07:25:46.129Z,101255.41
2022-08-20T07:31:13.264Z,101327.53
2022-08-20T07:36:21.330Z,101342.78
2022-08-20T07:41:24.063Z,101346.25
2022-08-20T07:46:33.577Z,101321.63
2022-08-20T07:51:43.577Z,101354.69
2022-08-20T07:56:46.539Z,101358.03
2022-08-20T08:01:52.331Z,101371.94
2022-08-20T08:06:59.945Z,101371.13
2022-08-20T08:12:04.822Z,101373.75
2022-08-20T08:17:09.403Z,101376.03
2022-08-20T08:22:17.397Z,101380.56
2022-08-20T08:27:20.296Z,101375.44
2022-08-20T08:32:24.983Z,101331.38
2022-08-20T08:37:30.796Z,101376.50
2022-08-20T08:42:43.436Z,101381.78
2022-08-20T08:47:46.712Z,101383.28
2022-08-20T08:52:54.873Z,101357.72
2022-08-20T08:58:04.456Z,101398.38
2022-08-20T09:03:26.878Z,101393.63
2022-08-20T09:08:37.002Z,101405.22
2022-08-20T09:13:42.959Z,101381.38
2022-08-20T09:18:47.275Z,101408.97
2022-08-20T09:23:54.203Z,101381.22
2022-08-20T09:28:59.861Z,101413.66
2022-08-20T09:34:03.269Z,101412.63
2022-08-20T09:39:07.376Z,101429.06
2022-08-20T09:44:15.549Z,101353.34
2022-08-20T09:49:19.372Z,101416.06
2022-08-20T09:54:23.797Z,101356.75
2022-08-20T09:59:27.277Z,101396.59
2022-08-20T10:04:30.077Z,101419.03
2022-08-20T10:09:40.025Z,101369.88
2022-08-20T10:14:42.989Z,101387.16
2022-08-20T10:19:45.945Z,101381.88
2022-08-20T10:24:50.381Z,101423.41
2022-08-20T10:29:53.083Z,101421.00
2022-08-20T10:34:55.924Z,101270.41
2022-08-20T10:40:00.133Z,101414.53
2022-08-20T10:45:02.980Z,101427.13
2022-08-20T10:50:10.904Z,101429.69
2022-08-20T10:55:18.808Z,101400.50
2022-08-20T11:00:22.762Z,101378.97
2022-08-20T11:05:25.600Z,101312.25
2022-08-20T11:10:35.141Z,101415.41
2022-08-20T11:15:40.612Z,101432.09
2022-08-20T11:20:43.571Z,101395.59
2022-08-20T11:25:47.894Z,101421.91
2022-08-20T11:30:50.869Z,101386.47
2022-08-20T11:35:53.633Z,101359.16
2022-08-20T11:40:57.724Z,101437.72
2022-08-20T11:46:02.927Z,101434.53
2022-08-20T11:51:05.980Z,101383.97
2022-08-20T11:56:10.712Z,101392.78
2022-08-20T12:01:16.134Z,101340.56
2022-08-20T12:06:18.924Z,101402.25
2022-08-20T12:11:23.117Z,101404.75
2022-08-20T12:16:25.937Z,101421.31
2022-08-20T12:21:32.383Z,101414.00
2022-08-20T12:26:36.600Z,101416.19
2022-08-20T12:31:39.301Z,101436.97
2022-08-20T12:36:42.847Z,101432.25
2022-08-20T12:41:46.861Z,101418.41
2022-08-20T12:46:49.494Z,101421.13
2022-08-20T12:51:52.168Z,101343.28
2022-08-20T12:56:56.381Z,101406.47
2022-08-20T13:02:06.967Z,101429.94
2022-08-20T13:07:21.733Z,101395.28
2022-08-20T13:12:25.923Z,101404.78
2022-08-20T13:17:38.370Z,101402.31
2022-08-20T13:22:42.242Z,101408.16
2022-08-20T13:27:46.687Z,101382.03
2022-08-20T13:32:49.944Z,101392.28
2022-08-20T13:37:53.165Z,101368.09
2022-08-20T13:42:57.581Z,101380.59
2022-08-20T13:48:00.513Z,101398.72
2022-08-20T13:53:03.586Z,101392.38
2022-08-20T13:58:08.605Z,101395.72
2022-08-20T14:03:13.019Z,101394.66
2022-08-20T14:08:20.158Z,101395.16
2022-08-20T14:13:26.587Z,101370.25
2022-08-20T14:18:30.719Z,101371.13
2022-08-20T14:23:36.969Z,101379.88
2022-08-20T14:28:41.235Z,101394.09
2022-08-20T14:33:46.115Z,101374.44
2022-08-20T14:38:48.791Z,101386.59
2022-08-20T14:43:53.858Z,101365.66
2022-08-20T14:48:56.552Z,101296.56
2022-08-20T14:53:59.208Z,101374.44
2022-08-20T14:59:03.775Z,101388.09
2022-08-20T15:04:09.231Z,101365.41
2022-08-20T15:09:12.441Z,101335.31
2022-08-20T15:14:18.422Z,101379.69
2022-08-20T15:19:23.797Z,101390.72
2022-08-20T15:24:26.622Z,101394.38
2022-08-20T15:29:32.732Z,101386.63
2022-08-20T15:34:37.168Z,101345.34
2022-08-20T15:39:41.045Z,101335.63
2022-08-20T15:44:45.701Z,101387.53
2022-08-20T15:49:50.356Z,101376.13
2022-08-20T15:54:56.218Z,101389.03
2022-08-20T16:00:11.880Z,101397.66
2022-08-20T16:05:24.690Z,101393.97
2022-08-20T16:10:35.044Z,101388.22
2022-08-20T16:15:48.893Z,101298.16
2022-08-20T16:20:55.212Z,101357.84
2022-08-20T16:26:10.241Z,101322.94
2022-08-20T16:31:18.944Z,101384.19
2022-08-20T16:36:31.056Z,101362.50
2022-08-20T16:41:40.332Z,101374.66
2022-08-20T16:46:50.369Z,101384.63
2022-08-20T16:51:54.062Z,101381.63
2022-08-20T16:57:01.697Z,101360.72
2022-08-20T17:02:10.711Z,101377.34
2022-08-20T17:07:13.686Z,101358.41
2022-08-20T17:12:22.464Z,101378.00
2022-08-20T17:17:29.096Z,101399.63
2022-08-20T17:22:40.440Z,101399.81
2022-08-20T17:27:43.240Z,101348.50
2022-08-20T17:32:57.442Z,101395.13
2022-08-20T17:38:04.042Z,101402.03
2022-08-20T17:43:23.067Z,101371.34
2022-08-20T17:48:32.232Z,101405.25
2022-08-20T17:53:38.284Z,101382.81
2022-08-20T17:58:54.176Z,101409.16
2022-08-20T18:03:59.967Z,101341.28
2022-08-20T18:09:08.863Z,101389.72
2022-08-20T18:14:32.758Z,101415.75
2022-08-20T18:20:09.972Z,101403.41
2022-08-20T18:25:28.624Z,101430.09
2022-08-20T18:30:33.254Z,101428.75
2022-08-20T18:35:45.693Z,101426.03
2022-08-20T18:40:53.121Z,101440.03
2022-08-20T18:46:13.122Z,101412.50
2022-08-20T18:51:22.088Z,101342.97
2022-08-20T18:56:34.356Z,101408.06
2022-08-20T21:41:47.440Z,101393.88
2022-08-20T21:46:50.847Z,101466.56
2022-08-20T21:51:54.440Z,101365.88
2022-08-20T21:57:09.387Z,101465.09
2022-08-20T22:02:14.511Z,101461.78
2022-08-20T22:07:18.406Z,101471.78
2022-08-20T22:12:24.956Z,101450.50
2022-08-20T22:17:27.941Z,101443.44
2022-08-20T22:22:35.240Z,101384.13
2022-08-20T22:27:42.133Z,101407.53
2022-08-20T22:32:52.404Z,101471.84
2022-08-20T22:37:55.300Z,101477.00
2022-08-20T22:43:00.046Z,101467.56
2022-08-20T22:48:03.634Z,101460.41
2022-08-20T22:53:08.023Z,101392.44
2022-08-20T22:58:12.393Z,101465.16
2022-08-20T23:03:18.043Z,101465.44
2022-08-20T23:08:41.679Z,101449.88
2022-08-20T23:13:45.784Z,101463.91
2022-08-20T23:18:48.871Z,101447.91
2022-08-20T23:23:51.597Z,101445.28
2022-08-20T23:28:56.233Z,101448.19
2022-08-20T23:33:58.942Z,101439.88
2022-08-20T23:39:01.750Z,101419.81
2022-08-20T23:44:25.002Z,101439.75
2022-08-20T23:49:30.457Z,101355.88
2022-08-20T23:54:33.952Z,101436.97
2022-08-20T23:59:37.978Z,101423.78
